Costa Atlantica — IBLQ — position and weather

sailwx.info

Track history (hours):
 
Tides and Currents Weather Stations Pressure Air Temp Water Temp Dewpoint Dewpoint Depression Visibility Wind Speed Wind Dir Waves Ship Positions

Costa Atlantica (Italy)

Last reported at 2019-Apr-11 10:33 UTC. Time now 2019-Apr-25 15:52 UTC.
Position N 25°15' E 121°46'.
Warning: this ship's position is 14 days out of date.

Length 292 m; draft 8 m.

Type: Ship. MMSI: 247595017.

Date/timePositionNaut miles runAvg speedWind from/ knotsBaromVisibWave heightAir tempDewpointWater temp
2019-Apr-11 10:33N 25°15' E 121°46'513.3
2019-Apr-11 10:11N 25°10' E 121°45'2 2.7
2019-Apr-11 09:25N 25°08' E 121°45'0 0.0
2019-Apr-11 08:36N 25°08' E 121°45'0 0.0
2019-Apr-11 08:30N 25°08' E 121°45'0 0.0
2019-Apr-11 07:59N 25°08' E 121°45'0 0.0
2019-Apr-11 07:30N 25°08' E 121°45'0 0.0
2019-Apr-11 06:59N 25°08' E 121°45'0 0.0
2019-Apr-11 06:30N 25°08' E 121°45'0 0.0
2019-Apr-11 05:59N 25°08' E 121°45'0 0.0
2019-Apr-11 05:29N 25°08' E 121°45'0 0.0
2019-Apr-11 05:00N 25°08' E 121°45'0 0.0
2019-Apr-11 04:29N 25°08' E 121°45'0 0.0
2019-Apr-11 03:59N 25°08' E 121°45'0 0.0
2019-Apr-11 03:30N 25°08' E 121°45'0 0.0
2019-Apr-11 03:00N 25°08' E 121°45'0 0.0
2019-Apr-11 02:23N 25°08' E 121°45'0 0.0
2019-Apr-11 02:00N 25°08' E 121°45'0 0.0
2019-Apr-11 01:30N 25°08' E 121°45'0 0.0
2019-Apr-11 01:00N 25°08' E 121°45'0 0.0
2019-Apr-11 00:29N 25°08' E 121°45'0 0.0
2019-Apr-10 23:57N 25°08' E 121°45'0 0.3
2019-Apr-10 23:24N 25°08' E 121°45'3 6.5
2019-Apr-10 22:53N 25°11' E 121°45'4 9.6
2019-Apr-10 22:28N 25°15' E 121°46'810.8
2019-Apr-10 21:46N 25°19' E 121°53'3 9.8
2019-Apr-10 21:26N 25°18' E 121°57'1011.3
2019-Apr-10 20:35N 25°14' E 122°06'211.1
2019-Apr-10 20:24N 25°14' E 122°08'1211.6
2019-Apr-10 19:21N 25°09' E 122°21'  
2019-Apr-07 08:26N 25°15' E 121°53'815.6
2019-Apr-07 07:56N 25°11' E 121°46'2 5.6
2019-Apr-07 07:30N 25°09' E 121°45'1 1.6
2019-Apr-07 06:56N 25°08' E 121°45'0 0.0
2019-Apr-07 06:23N 25°08' E 121°45'0 0.0
2019-Apr-07 05:59N 25°08' E 121°45'0 0.0
2019-Apr-07 05:29N 25°08' E 121°45'0 0.0
2019-Apr-07 04:59N 25°08' E 121°45'0 0.0
2019-Apr-07 04:30N 25°08' E 121°45'0 0.0
2019-Apr-07 03:59N 25°08' E 121°45'0 0.0
2019-Apr-07 03:26N 25°08' E 121°45'0 0.0
2019-Apr-07 02:59N 25°08' E 121°45'0 0.0
2019-Apr-07 02:26N 25°08' E 121°45'0 0.0
2019-Apr-07 01:59N 25°08' E 121°45'0 0.0
2019-Apr-07 01:26N 25°08' E 121°45'0 0.0
2019-Apr-07 00:59N 25°08' E 121°45'0 0.0
2019-Apr-07 00:29N 25°08' E 121°45'0 0.0
2019-Apr-06 23:53N 25°08' E 121°45'0 0.0
2019-Apr-06 23:29N 25°08' E 121°45'0 0.0
2019-Apr-06 22:59N 25°08' E 121°45'0 0.0
2019-Apr-06 22:31N 25°08' E 121°45'1 1.6
2019-Apr-06 22:01N 25°09' E 121°45'5 9.2
2019-Apr-06 21:31N 25°13' E 121°45'815.2
2019-Apr-06 21:00N 25°21' E 121°46'1614.4
2019-Apr-06 19:54N 25°35' E 121°53'1013.6
2019-Apr-06 19:11N 25°44' E 121°57'  
2019-Apr-03 16:04N 34°00' E 134°55'119.4
2019-Apr-03 16:00N 34°02' E 134°56'918.9
2019-Apr-03 15:30N 34°11' E 134°58'714.7
2019-Apr-03 15:01N 34°18' E 134°59'918.0
2019-Apr-03 14:30N 34°25' E 135°05'918.0
2019-Apr-03 14:00N 34°32' E 135°13'816.6
2019-Apr-03 13:30N 34°37' E 135°21'5 9.0
2019-Apr-03 12:59N 34°39' E 135°26'0 0.0
2019-Apr-03 12:29N 34°39' E 135°26'0 0.0
2019-Apr-03 11:59N 34°39' E 135°26'0 0.0
2019-Apr-03 11:29N 34°39' E 135°26'0 0.0
2019-Apr-03 10:59N 34°39' E 135°26'0 0.0
2019-Apr-03 10:29N 34°39' E 135°26'0 0.0
2019-Apr-03 09:59N 34°39' E 135°26'0 0.0
2019-Apr-03 09:29N 34°39' E 135°26'0 0.0
2019-Apr-03 08:59N 34°39' E 135°26'0 0.0
2019-Apr-03 08:29N 34°39' E 135°26'0 0.0
2019-Apr-03 07:53N 34°39' E 135°26'0 0.0
2019-Apr-03 07:29N 34°39' E 135°26'0 0.0
2019-Apr-03 06:53N 34°39' E 135°26'0 0.0
2019-Apr-03 06:19N 34°39' E 135°26'0 0.0
2019-Apr-03 05:59N 34°39' E 135°26'0 0.0
2019-Apr-03 05:29N 34°39' E 135°26'0 0.0
2019-Apr-03 04:59N 34°39' E 135°26'0 0.0
2019-Apr-03 04:25N 34°39' E 135°26'0 0.0
2019-Apr-03 03:59N 34°39' E 135°26'0 0.0
2019-Apr-03 03:29N 34°39' E 135°26'0 0.0
2019-Apr-03 02:59N 34°39' E 135°26'0 0.0
2019-Apr-03 02:29N 34°39' E 135°26'0 0.0
2019-Apr-03 01:59N 34°39' E 135°26'0 0.0
2019-Apr-03 01:29N 34°39' E 135°26'0 0.0
2019-Apr-03 00:59N 34°39' E 135°26'0 0.0
2019-Apr-03 00:29N 34°39' E 135°26'0 0.0
2019-Apr-02 23:50N 34°39' E 135°26'0 0.0
2019-Apr-02 23:29N 34°39' E 135°26'0 0.0
2019-Apr-02 23:00N 34°39' E 135°26'1 1.7
2019-Apr-02 22:30N 34°39' E 135°25'5 9.8
2019-Apr-02 22:00N 34°36' E 135°20'714.7
2019-Apr-02 21:30N 34°31' E 135°14'715.0
2019-Apr-02 21:00N 34°25' E 135°08'815.9
2019-Apr-02 20:31N 34°19' E 135°01'815.2
2019-Apr-02 20:00N 34°12' E 134°59'611.5
2019-Apr-02 19:30N 34°06' E 134°59'713.9
2019-Apr-02 19:01N 33°59' E 134°58'714.5
2019-Apr-02 18:31N 33°52' E 134°58'714.4
2019-Apr-02 18:00N 33°45' E 134°58'714.1
2019-Apr-02 17:30N 33°38' E 134°57'  
Track history (hours):
 
Tides and Currents Weather Stations Pressure Air Temp Water Temp Dewpoint Dewpoint Depression Visibility Wind Speed Wind Dir Waves Ship Positions

Costa Atlantica (Italy)

Last reported at 2019-Apr-11 10:33 UTC. Time now 2019-Apr-25 15:52 UTC.
Position N 25°15' E 121°46'.
Warning: this ship's position is 14 days out of date.

Length 292 m; draft 8 m.

Type: Ship. MMSI: 247595017.

Date/timePositionNaut miles runAvg speedWind from/ knotsBaromVisibWave heightAir tempDewpointWater temp
2019-Apr-11 10:33N 25°15' E 121°46'513.3
2019-Apr-11 10:11N 25°10' E 121°45'2 2.7
2019-Apr-11 09:25N 25°08' E 121°45'0 0.0
2019-Apr-11 08:36N 25°08' E 121°45'0 0.0
2019-Apr-11 08:30N 25°08' E 121°45'0 0.0
2019-Apr-11 07:59N 25°08' E 121°45'0 0.0
2019-Apr-11 07:30N 25°08' E 121°45'0 0.0
2019-Apr-11 06:59N 25°08' E 121°45'0 0.0
2019-Apr-11 06:30N 25°08' E 121°45'0 0.0
2019-Apr-11 05:59N 25°08' E 121°45'0 0.0
2019-Apr-11 05:29N 25°08' E 121°45'0 0.0
2019-Apr-11 05:00N 25°08' E 121°45'0 0.0
2019-Apr-11 04:29N 25°08' E 121°45'0 0.0
2019-Apr-11 03:59N 25°08' E 121°45'0 0.0
2019-Apr-11 03:30N 25°08' E 121°45'0 0.0
2019-Apr-11 03:00N 25°08' E 121°45'0 0.0
2019-Apr-11 02:23N 25°08' E 121°45'0 0.0
2019-Apr-11 02:00N 25°08' E 121°45'0 0.0
2019-Apr-11 01:30N 25°08' E 121°45'0 0.0
2019-Apr-11 01:00N 25°08' E 121°45'0 0.0
2019-Apr-11 00:29N 25°08' E 121°45'0 0.0
2019-Apr-10 23:57N 25°08' E 121°45'0 0.3
2019-Apr-10 23:24N 25°08' E 121°45'3 6.5
2019-Apr-10 22:53N 25°11' E 121°45'4 9.6
2019-Apr-10 22:28N 25°15' E 121°46'810.8
2019-Apr-10 21:46N 25°19' E 121°53'3 9.8
2019-Apr-10 21:26N 25°18' E 121°57'1011.3
2019-Apr-10 20:35N 25°14' E 122°06'211.1
2019-Apr-10 20:24N 25°14' E 122°08'1211.6
2019-Apr-10 19:21N 25°09' E 122°21'  
2019-Apr-07 08:26N 25°15' E 121°53'815.6
2019-Apr-07 07:56N 25°11' E 121°46'2 5.6
2019-Apr-07 07:30N 25°09' E 121°45'1 1.6
2019-Apr-07 06:56N 25°08' E 121°45'0 0.0
2019-Apr-07 06:23N 25°08' E 121°45'0 0.0
2019-Apr-07 05:59N 25°08' E 121°45'0 0.0
2019-Apr-07 05:29N 25°08' E 121°45'0 0.0
2019-Apr-07 04:59N 25°08' E 121°45'0 0.0
2019-Apr-07 04:30N 25°08' E 121°45'0 0.0
2019-Apr-07 03:59N 25°08' E 121°45'0 0.0
2019-Apr-07 03:26N 25°08' E 121°45'0 0.0
2019-Apr-07 02:59N 25°08' E 121°45'0 0.0
2019-Apr-07 02:26N 25°08' E 121°45'0 0.0
2019-Apr-07 01:59N 25°08' E 121°45'0 0.0
2019-Apr-07 01:26N 25°08' E 121°45'0 0.0
2019-Apr-07 00:59N 25°08' E 121°45'0 0.0
2019-Apr-07 00:29N 25°08' E 121°45'0 0.0
2019-Apr-06 23:53N 25°08' E 121°45'0 0.0
2019-Apr-06 23:29N 25°08' E 121°45'0 0.0
2019-Apr-06 22:59N 25°08' E 121°45'0 0.0
2019-Apr-06 22:31N 25°08' E 121°45'1 1.6
2019-Apr-06 22:01N 25°09' E 121°45'5 9.2
2019-Apr-06 21:31N 25°13' E 121°45'815.2
2019-Apr-06 21:00N 25°21' E 121°46'1614.4
2019-Apr-06 19:54N 25°35' E 121°53'1013.6
2019-Apr-06 19:11N 25°44' E 121°57'  
2019-Apr-03 16:04N 34°00' E 134°55'119.4
2019-Apr-03 16:00N 34°02' E 134°56'918.9
2019-Apr-03 15:30N 34°11' E 134°58'714.7
2019-Apr-03 15:01N 34°18' E 134°59'918.0
2019-Apr-03 14:30N 34°25' E 135°05'918.0
2019-Apr-03 14:00N 34°32' E 135°13'816.6
2019-Apr-03 13:30N 34°37' E 135°21'5 9.0
2019-Apr-03 12:59N 34°39' E 135°26'0 0.0
2019-Apr-03 12:29N 34°39' E 135°26'0 0.0
2019-Apr-03 11:59N 34°39' E 135°26'0 0.0
2019-Apr-03 11:29N 34°39' E 135°26'0 0.0
2019-Apr-03 10:59N 34°39' E 135°26'0 0.0
2019-Apr-03 10:29N 34°39' E 135°26'0 0.0
2019-Apr-03 09:59N 34°39' E 135°26'0 0.0
2019-Apr-03 09:29N 34°39' E 135°26'0 0.0
2019-Apr-03 08:59N 34°39' E 135°26'0 0.0
2019-Apr-03 08:29N 34°39' E 135°26'0 0.0
2019-Apr-03 07:53N 34°39' E 135°26'0 0.0
2019-Apr-03 07:29N 34°39' E 135°26'0 0.0
2019-Apr-03 06:53N 34°39' E 135°26'0 0.0
2019-Apr-03 06:19N 34°39' E 135°26'0 0.0
2019-Apr-03 05:59N 34°39' E 135°26'0 0.0
2019-Apr-03 05:29N 34°39' E 135°26'0 0.0
2019-Apr-03 04:59N 34°39' E 135°26'0 0.0
2019-Apr-03 04:25N 34°39' E 135°26'0 0.0
2019-Apr-03 03:59N 34°39' E 135°26'0 0.0
2019-Apr-03 03:29N 34°39' E 135°26'0 0.0
2019-Apr-03 02:59N 34°39' E 135°26'0 0.0
2019-Apr-03 02:29N 34°39' E 135°26'0 0.0
2019-Apr-03 01:59N 34°39' E 135°26'0 0.0
2019-Apr-03 01:29N 34°39' E 135°26'0 0.0
2019-Apr-03 00:59N 34°39' E 135°26'0 0.0
2019-Apr-03 00:29N 34°39' E 135°26'0 0.0
2019-Apr-02 23:50N 34°39' E 135°26'0 0.0
2019-Apr-02 23:29N 34°39' E 135°26'0 0.0
2019-Apr-02 23:00N 34°39' E 135°26'1 1.7
2019-Apr-02 22:30N 34°39' E 135°25'5 9.8
2019-Apr-02 22:00N 34°36' E 135°20'714.7
2019-Apr-02 21:30N 34°31' E 135°14'715.0
2019-Apr-02 21:00N 34°25' E 135°08'815.9
2019-Apr-02 20:31N 34°19' E 135°01'815.2
2019-Apr-02 20:00N 34°12' E 134°59'611.5
2019-Apr-02 19:30N 34°06' E 134°59'713.9
2019-Apr-02 19:01N 33°59' E 134°58'714.5
2019-Apr-02 18:31N 33°52' E 134°58'714.4
2019-Apr-02 18:00N 33°45' E 134°58'714.1
2019-Apr-02 17:30N 33°38' E 134°57'  

Dump ship's entire track history